Saturday, August 1, 2015, 9:48 AM EDT

KPOU, Poughkeepsie Dutchess Cty

Location: Wappingers Falls, NY, United States Lat: 41.633
Local Time: 9:48 AM EDT (13:48 GMT) Lon: -73.883
Time Zone: US/Eastern Elev: 167 ft

Show me the last for .
Show Decoded

2015-08-01 08:53 METAR KPOU 011253Z VRB03KT 10SM SCT110 24/17 A2978 RMK AO2 SLP081 T02440167 =
2015-08-01 07:53 METAR KPOU 011153Z 19006KT 10SM CLR 23/16 A2978 RMK AO2 SLP080 T02330161 10233
                 20167 51005 =
2015-08-01 06:53 METAR KPOU 011053Z 00000KT 10SM FEW080 20/17 A2978 RMK AO2 SLP079 T02000167 =
2015-08-01 05:53 METAR KPOU 010953Z 00000KT 10SM CLR 17/15 A2977 RMK AO2 SLP076 T01670150 =
2015-08-01 04:53 METAR KPOU 010853Z 00000KT 10SM CLR 18/16 A2976 RMK AO2 SLP074 T01780156 56008 =
2015-08-01 03:53 METAR KPOU 010753Z 00000KT 10SM CLR 18/16 A2977 RMK AO2 SLP077 T01780156 =
2015-08-01 02:53 METAR KPOU 010653Z 00000KT 10SM CLR 18/16 A2978 RMK AO2 SLP079 T01780156 =
2015-08-01 01:53 METAR KPOU 010553Z 00000KT 10SM CLR 18/16 A2979 RMK AO2 SLP082 T01830156 10272
                 20183 58007 =
2015-08-01 00:53 METAR KPOU 010453Z 00000KT 10SM CLR 19/16 A2980 RMK AO2 SLP086 T01890156
                 403170172 =
2015-07-31 23:53 METAR KPOU 010353Z 00000KT 10SM CLR 19/16 A2981 RMK AO2 SLP090 T01940156 =
2015-07-31 22:53 METAR KPOU 010253Z 00000KT 10SM CLR 20/16 A2981 RMK AO2 SLP089 T02000161 51008 =
2015-07-31 21:53 METAR KPOU 010153Z 00000KT 10SM CLR 21/16 A2980 RMK AO2 SLP088 T02110156 =
2015-07-31 20:53 METAR KPOU 010053Z 00000KT 10SM CLR 23/16 A2979 RMK AO2 SLP084 T02280156 =
2015-07-31 19:53 METAR KPOU 312353Z 00000KT 10SM CLR 27/14 A2978 RMK AO2 SLP081 T02720139 10317
                 20272 56006 =
2015-07-31 18:53 METAR KPOU 312253Z 27006KT 10SM CLR 30/12 A2979 RMK AO2 SLP082 T03000117 =
2015-07-31 17:53 METAR KPOU 312153Z 28009KT 10SM CLR 31/11 A2979 RMK AO2 SLP083 T03110111 =
2015-07-31 16:53 METAR KPOU 312053Z 31009KT 10SM CLR 31/11 A2980 RMK AO2 SLP087 T03110111 56007 =
2015-07-31 15:53 METAR KPOU 311953Z 29012G17KT 10SM FEW080 31/11 A2980 RMK AO2 SLP087 T03110106 =
2015-07-31 14:53 METAR KPOU 311853Z 28010KT 10SM FEW080 32/11 A2981 RMK AO2 SLP091 T03170111 =
2015-07-31 13:53 METAR KPOU 311753Z AUTO 25012KT 10SM FEW075 31/12 A2982 RMK AO2 SLP094 T03110122
                 10317 20217 58012 =
2015-07-31 12:53 METAR KPOU 311653Z AUTO 32007KT 270V350 10SM CLR 31/11 A2983 RMK AO2 SLP098
                 T03060106 =
2015-07-31 11:53 METAR KPOU 311553Z AUTO 27009KT 10SM CLR 29/13 A2985 RMK AO2 SLP104 T02940128 =
2015-07-31 10:53 METAR KPOU 311453Z AUTO 30006KT 10SM CLR 28/16 A2986 =
2015-07-31 09:53 METAR KPOU 311353Z AUTO VRB04KT 10SM CLR 26/16 A2986 RMK AO2 SLP106 T02610161 =

Support USWX by starting your Amazon purchase here.